BRK weather

Bourke Airport
New South Wales, Australia

Public forecast

Using degrees Celsius for public forecast. Weather courtesy of forecast.io.

METAR (pilot weather report)

Closest report is Cobar Airport, 90.4 nm (167.4 km) S. Retrieved 2019/04/25 08:00 UTC (6 minutes ago):

YCBA 250800Z AUTO 21004KT 9999 // NCD 25/15 Q1018

TAF (pilot weather forecast)

Closest forecast is Dubbo City Regional Airport, 187.8 nm (347.8 km) SE. Retrieved 2019/04/25 06:36 UTC (1 hour ago):

TAF YSDU 250450Z 2506/2524 22008KT 9999 -SHRA SCT060 FM250900 VRB03KT CAVOK